Aplin, Arkansas
Current Conditions -  °F | °C
As of 1:53 AM on Thursday 27 Nov 2014 (Local Time) from KRUE Reporting Station
Clear Clear  
Wind Chill: 32°   Ceiling: Unl
Heat Index: 39°   Visibility: 10mi
Dew Point: 26°   Wind: 12mph
Humidity: 60%   Direction: 320°NW
Pressure: 30.36"   Gusts: NA
Location:  34.9067°N, 93.0072°W
Report Text: KRUE 270753Z AUTO 32010KT 10SM CLR 04/M03 A3036 RMK AO2 SLP278 T00391033
Loading
Personal Weather Stations






























Interactive Weather Map New forecast layout! Learn more

10-Day Weather Forecast

Advertisements
Track Severe Weather on mobile